sensor_id;sensor_type;location;lat;lon;timestamp;pressure;altitude;pressure_sealevel;temperature;humidity
46944;BME280;32678;43.852;25.952;2024-01-30T00:03:03;103729.59;;;4.91;67.19
46944;BME280;32678;43.852;25.952;2024-01-30T00:08:00;103725.69;;;5.02;66.36
46944;BME280;32678;43.852;25.952;2024-01-30T00:12:57;103685.78;;;4.77;66.59
46944;BME280;32678;43.852;25.952;2024-01-30T00:17:54;103723.31;;;5.08;66.24
46944;BME280;32678;43.852;25.952;2024-01-30T00:22:50;103723.41;;;5.11;65.89
46944;BME280;32678;43.852;25.952;2024-01-30T00:27:47;103725.44;;;4.96;65.74
46944;BME280;32678;43.852;25.952;2024-01-30T00:32:44;103729.53;;;4.89;65.67
46944;BME280;32678;43.852;25.952;2024-01-30T00:37:41;103719.50;;;4.98;65.90
46944;BME280;32678;43.852;25.952;2024-01-30T00:42:37;103723.56;;;4.92;65.29
46944;BME280;32678;43.852;25.952;2024-01-30T00:47:34;103718.25;;;4.89;65.37
46944;BME280;32678;43.852;25.952;2024-01-30T00:52:31;103721.72;;;4.89;65.29
46944;BME280;32678;43.852;25.952;2024-01-30T00:57:29;103720.38;;;4.76;65.68
46944;BME280;32678;43.852;25.952;2024-01-30T01:02:26;103711.13;;;4.83;66.07
46944;BME280;32678;43.852;25.952;2024-01-30T01:07:22;103708.63;;;4.86;65.86
46944;BME280;32678;43.852;25.952;2024-01-30T01:12:19;103707.97;;;4.92;64.69
46944;BME280;32678;43.852;25.952;2024-01-30T01:17:16;103709.59;;;4.90;64.08
46944;BME280;32678;43.852;25.952;2024-01-30T01:22:15;103706.03;;;4.86;63.17
46944;BME280;32678;43.852;25.952;2024-01-30T01:27:12;103703.78;;;4.28;63.44
46944;BME280;32678;43.852;25.952;2024-01-30T01:32:09;103710.34;;;4.41;63.95
46944;BME280;32678;43.852;25.952;2024-01-30T01:37:06;103706.94;;;4.21;63.64
46944;BME280;32678;43.852;25.952;2024-01-30T01:42:03;103704.00;;;3.91;64.20
46944;BME280;32678;43.852;25.952;2024-01-30T01:47:00;103699.78;;;3.54;64.86
46944;BME280;32678;43.852;25.952;2024-01-30T01:51:57;103707.50;;;3.12;67.18
46944;BME280;32678;43.852;25.952;2024-01-30T01:56:55;103703.84;;;3.28;66.94
46944;BME280;32678;43.852;25.952;2024-01-30T02:01:51;103712.75;;;3.54;65.98
46944;BME280;32678;43.852;25.952;2024-01-30T02:06:49;103718.63;;;3.69;65.60
46944;BME280;32678;43.852;25.952;2024-01-30T02:11:46;103705.50;;;3.45;66.00
46944;BME280;32678;43.852;25.952;2024-01-30T02:16:43;103700.38;;;3.67;65.61
46944;BME280;32678;43.852;25.952;2024-01-30T02:21:41;103706.53;;;3.69;65.68
46944;BME280;32678;43.852;25.952;2024-01-30T02:26:37;103704.56;;;4.05;64.86
46944;BME280;32678;43.852;25.952;2024-01-30T02:31:34;103700.88;;;3.59;64.88
46944;BME280;32678;43.852;25.952;2024-01-30T02:36:30;103702.59;;;3.79;64.90
46944;BME280;32678;43.852;25.952;2024-01-30T02:41:27;103699.34;;;3.43;65.40
46944;BME280;32678;43.852;25.952;2024-01-30T02:46:24;103697.84;;;3.29;66.02
46944;BME280;32678;43.852;25.952;2024-01-30T02:51:21;103696.31;;;3.53;65.12
46944;BME280;32678;43.852;25.952;2024-01-30T02:56:17;103686.03;;;3.75;64.99
46944;BME280;32678;43.852;25.952;2024-01-30T03:01:14;103683.06;;;3.66;64.66
46944;BME280;32678;43.852;25.952;2024-01-30T03:06:11;103687.59;;;3.92;63.79
46944;BME280;32678;43.852;25.952;2024-01-30T03:11:08;103687.94;;;3.79;63.69
46944;BME280;32678;43.852;25.952;2024-01-30T03:16:05;103679.56;;;3.66;63.50
46944;BME280;32678;43.852;25.952;2024-01-30T03:21:02;103683.66;;;3.81;63.65
46944;BME280;32678;43.852;25.952;2024-01-30T03:25:59;103684.69;;;3.85;63.91
46944;BME280;32678;43.852;25.952;2024-01-30T03:30:55;103671.72;;;3.64;63.66
46944;BME280;32678;43.852;25.952;2024-01-30T03:35:52;103678.31;;;3.56;64.20
46944;BME280;32678;43.852;25.952;2024-01-30T03:40:49;103670.34;;;3.52;64.57
46944;BME280;32678;43.852;25.952;2024-01-30T03:45:46;103666.00;;;3.52;64.53
46944;BME280;32678;43.852;25.952;2024-01-30T03:50:42;103660.91;;;3.74;64.17
46944;BME280;32678;43.852;25.952;2024-01-30T03:55:39;103667.97;;;3.78;64.22
46944;BME280;32678;43.852;25.952;2024-01-30T04:00:36;103668.53;;;3.92;63.40
46944;BME280;32678;43.852;25.952;2024-01-30T04:05:33;103669.94;;;3.63;64.00
46944;BME280;32678;43.852;25.952;2024-01-30T04:10:30;103667.28;;;3.82;63.48
46944;BME280;32678;43.852;25.952;2024-01-30T04:15:26;103675.88;;;3.81;63.28
46944;BME280;32678;43.852;25.952;2024-01-30T04:20:24;103676.25;;;3.49;64.07
46944;BME280;32678;43.852;25.952;2024-01-30T04:25:21;103680.97;;;3.38;64.85
46944;BME280;32678;43.852;25.952;2024-01-30T04:30:18;103679.31;;;3.60;64.27
46944;BME280;32678;43.852;25.952;2024-01-30T04:35:14;103691.44;;;3.81;63.53
46944;BME280;32678;43.852;25.952;2024-01-30T04:40:12;103686.59;;;3.89;63.11
46944;BME280;32678;43.852;25.952;2024-01-30T04:45:09;103680.69;;;3.72;63.79
46944;BME280;32678;43.852;25.952;2024-01-30T04:50:06;103678.28;;;3.77;63.72
46944;BME280;32678;43.852;25.952;2024-01-30T04:55:03;103689.75;;;4.03;63.02
46944;BME280;32678;43.852;25.952;2024-01-30T05:00:01;103681.41;;;4.10;63.00
46944;BME280;32678;43.852;25.952;2024-01-30T05:04:57;103685.38;;;4.02;62.31
46944;BME280;32678;43.852;25.952;2024-01-30T05:09:54;103687.13;;;4.23;62.63
46944;BME280;32678;43.852;25.952;2024-01-30T05:14:55;103687.13;;;4.23;62.41
46944;BME280;32678;43.852;25.952;2024-01-30T05:19:52;103694.78;;;4.20;61.85
46944;BME280;32678;43.852;25.952;2024-01-30T05:24:48;103700.88;;;4.21;62.54
46944;BME280;32678;43.852;25.952;2024-01-30T05:29:45;103702.38;;;4.36;62.65
46944;BME280;32678;43.852;25.952;2024-01-30T05:34:42;103700.44;;;4.53;62.47
46944;BME280;32678;43.852;25.952;2024-01-30T05:39:39;103702.00;;;4.50;61.82
46944;BME280;32678;43.852;25.952;2024-01-30T05:44:36;103708.81;;;4.46;61.77
46944;BME280;32678;43.852;25.952;2024-01-30T05:49:35;103708.28;;;4.32;61.74
46944;BME280;32678;43.852;25.952;2024-01-30T05:54:32;103718.84;;;4.37;61.59
46944;BME280;32678;43.852;25.952;2024-01-30T05:59:29;103721.03;;;4.49;61.99
46944;BME280;32678;43.852;25.952;2024-01-30T06:04:26;103716.06;;;4.55;60.64
46944;BME280;32678;43.852;25.952;2024-01-30T06:09:23;103724.47;;;4.48;59.97
46944;BME280;32678;43.852;25.952;2024-01-30T06:14:19;103722.56;;;4.44;60.54
46944;BME280;32678;43.852;25.952;2024-01-30T06:19:26;103728.13;;;4.53;60.09
46944;BME280;32678;43.852;25.952;2024-01-30T06:24:22;103738.91;;;4.41;60.03
46944;BME280;32678;43.852;25.952;2024-01-30T06:29:19;103734.34;;;4.35;60.32
46944;BME280;32678;43.852;25.952;2024-01-30T06:34:16;103734.34;;;4.35;60.71
46944;BME280;32678;43.852;25.952;2024-01-30T06:39:14;103736.03;;;4.33;59.60
46944;BME280;32678;43.852;25.952;2024-01-30T06:44:11;103743.47;;;4.47;59.67
46944;BME280;32678;43.852;25.952;2024-01-30T06:49:08;103748.97;;;4.54;59.58
46944;BME280;32678;43.852;25.952;2024-01-30T06:54:05;103750.06;;;4.59;58.75
46944;BME280;32678;43.852;25.952;2024-01-30T06:59:02;103758.75;;;4.39;58.58
46944;BME280;32678;43.852;25.952;2024-01-30T07:03:58;103757.06;;;4.19;59.04
46944;BME280;32678;43.852;25.952;2024-01-30T07:08:55;103760.38;;;4.15;58.57
46944;BME280;32678;43.852;25.952;2024-01-30T07:13:52;103755.28;;;3.57;59.61
46944;BME280;32678;43.852;25.952;2024-01-30T07:18:49;103756.56;;;3.67;60.33
46944;BME280;32678;43.852;25.952;2024-01-30T07:23:46;103752.03;;;3.82;60.58
46944;BME280;32678;43.852;25.952;2024-01-30T07:28:43;103748.06;;;3.90;60.02
46944;BME280;32678;43.852;25.952;2024-01-30T07:33:40;103753.66;;;4.20;59.47
46944;BME280;32678;43.852;25.952;2024-01-30T07:38:37;103751.44;;;4.29;59.42
46944;BME280;32678;43.852;25.952;2024-01-30T07:43:34;103749.81;;;4.32;60.02
46944;BME280;32678;43.852;25.952;2024-01-30T07:48:33;103747.44;;;4.59;59.78
46944;BME280;32678;43.852;25.952;2024-01-30T07:53:30;103746.31;;;4.75;58.92
46944;BME280;32678;43.852;25.952;2024-01-30T07:58:32;103753.78;;;4.88;58.41
46944;BME280;32678;43.852;25.952;2024-01-30T08:03:29;103741.75;;;4.92;57.80
46944;BME280;32678;43.852;25.952;2024-01-30T08:08:25;103749.09;;;5.02;57.99
46944;BME280;32678;43.852;25.952;2024-01-30T08:13:23;103744.81;;;5.04;57.38
46944;BME280;32678;43.852;25.952;2024-01-30T08:18:22;103750.59;;;4.73;57.40
46944;BME280;32678;43.852;25.952;2024-01-30T08:23:19;103736.31;;;4.86;57.55
46944;BME280;32678;43.852;25.952;2024-01-30T08:28:15;103743.41;;;4.90;57.75
46944;BME280;32678;43.852;25.952;2024-01-30T08:33:16;103746.16;;;4.93;57.25
46944;BME280;32678;43.852;25.952;2024-01-30T08:38:14;103750.75;;;4.77;57.53
46944;BME280;32678;43.852;25.952;2024-01-30T08:43:10;103751.38;;;4.94;57.83
46944;BME280;32678;43.852;25.952;2024-01-30T08:48:08;103757.13;;;4.86;57.85
46944;BME280;32678;43.852;25.952;2024-01-30T08:53:05;103751.22;;;4.90;58.04
46944;BME280;32678;43.852;25.952;2024-01-30T08:58:03;103749.44;;;5.11;57.92
46944;BME280;32678;43.852;25.952;2024-01-30T09:03:01;103748.84;;;5.18;58.41
46944;BME280;32678;43.852;25.952;2024-01-30T09:07:57;103739.41;;;5.21;57.71
46944;BME280;32678;43.852;25.952;2024-01-30T09:12:54;103745.38;;;5.43;57.81
46944;BME280;32678;43.852;25.952;2024-01-30T09:17:52;103729.84;;;5.20;57.38
46944;BME280;32678;43.852;25.952;2024-01-30T09:22:50;103733.59;;;5.05;57.17
46944;BME280;32678;43.852;25.952;2024-01-30T09:27:47;103731.13;;;5.08;57.20
46944;BME280;32678;43.852;25.952;2024-01-30T09:32:43;103725.59;;;4.54;58.67
46944;BME280;32678;43.852;25.952;2024-01-30T09:37:41;103726.00;;;4.65;58.78
46944;BME280;32678;43.852;25.952;2024-01-30T09:42:37;103714.13;;;5.17;57.92
46944;BME280;32678;43.852;25.952;2024-01-30T09:47:39;103718.28;;;5.36;57.82
46944;BME280;32678;43.852;25.952;2024-01-30T09:52:37;103714.03;;;5.63;57.40
46944;BME280;32678;43.852;25.952;2024-01-30T09:57:35;103708.19;;;5.71;56.35
46944;BME280;32678;43.852;25.952;2024-01-30T10:02:32;103707.72;;;5.82;56.21
46944;BME280;32678;43.852;25.952;2024-01-30T10:07:29;103708.72;;;5.86;55.98
46944;BME280;32678;43.852;25.952;2024-01-30T10:12:26;103693.72;;;5.53;54.92
46944;BME280;32678;43.852;25.952;2024-01-30T10:17:25;103684.50;;;5.63;55.34
46944;BME280;32678;43.852;25.952;2024-01-30T10:22:29;103681.50;;;5.76;55.39
46944;BME280;32678;43.852;25.952;2024-01-30T10:27:29;103678.16;;;5.80;55.49
46944;BME280;32678;43.852;25.952;2024-01-30T10:32:27;103678.41;;;5.37;56.32
46944;BME280;32678;43.852;25.952;2024-01-30T10:37:24;103679.34;;;5.64;56.20
46944;BME280;32678;43.852;25.952;2024-01-30T10:42:21;103676.06;;;5.45;55.38
46944;BME280;32678;43.852;25.952;2024-01-30T10:47:25;103658.75;;;5.96;55.31
46944;BME280;32678;43.852;25.952;2024-01-30T10:52:23;103659.31;;;6.14;53.87
46944;BME280;32678;43.852;25.952;2024-01-30T10:57:24;103645.22;;;6.07;53.00
46944;BME280;32678;43.852;25.952;2024-01-30T11:02:24;103639.03;;;6.04;53.13
46944;BME280;32678;43.852;25.952;2024-01-30T11:07:24;103638.16;;;6.03;52.75
46944;BME280;32678;43.852;25.952;2024-01-30T11:12:21;103635.31;;;5.96;53.27
46944;BME280;32678;43.852;25.952;2024-01-30T11:17:18;103630.03;;;5.94;53.69
46944;BME280;32678;43.852;25.952;2024-01-30T11:22:15;103630.59;;;5.86;53.13
46944;BME280;32678;43.852;25.952;2024-01-30T11:27:15;103629.56;;;5.81;51.81
46944;BME280;32678;43.852;25.952;2024-01-30T11:32:16;103630.06;;;5.69;52.39
46944;BME280;32678;43.852;25.952;2024-01-30T11:37:19;103617.72;;;5.89;51.11
46944;BME280;32678;43.852;25.952;2024-01-30T11:42:17;103601.91;;;5.84;50.89
46944;BME280;32678;43.852;25.952;2024-01-30T11:47:14;103607.38;;;5.65;50.00
46944;BME280;32678;43.852;25.952;2024-01-30T11:52:11;103605.75;;;5.68;50.09
46944;BME280;32678;43.852;25.952;2024-01-30T11:57:08;103599.38;;;5.86;50.49
46944;BME280;32678;43.852;25.952;2024-01-30T12:02:05;103599.53;;;5.90;50.37
46944;BME280;32678;43.852;25.952;2024-01-30T12:07:02;103588.06;;;5.58;49.75
46944;BME280;32678;43.852;25.952;2024-01-30T12:12:00;103585.09;;;5.48;49.62
46944;BME280;32678;43.852;25.952;2024-01-30T12:16:57;103579.63;;;5.65;49.70
46944;BME280;32678;43.852;25.952;2024-01-30T12:21:55;103564.09;;;5.68;49.50
46944;BME280;32678;43.852;25.952;2024-01-30T12:26:52;103570.72;;;5.86;48.87
46944;BME280;32678;43.852;25.952;2024-01-30T12:31:52;103565.28;;;6.05;48.65
46944;BME280;32678;43.852;25.952;2024-01-30T12:36:49;103554.81;;;6.03;47.88
46944;BME280;32678;43.852;25.952;2024-01-30T12:41:46;103558.22;;;6.01;48.23
46944;BME280;32678;43.852;25.952;2024-01-30T12:46:43;103561.69;;;5.75;47.49
46944;BME280;32678;43.852;25.952;2024-01-30T12:51:42;103553.72;;;5.70;47.84
46944;BME280;32678;43.852;25.952;2024-01-30T12:56:40;103560.31;;;5.86;47.90
46944;BME280;32678;43.852;25.952;2024-01-30T13:01:40;103557.63;;;6.11;48.02
46944;BME280;32678;43.852;25.952;2024-01-30T13:06:38;103548.19;;;6.15;48.95
46944;BME280;32678;43.852;25.952;2024-01-30T13:11:37;103543.56;;;6.06;49.78
46944;BME280;32678;43.852;25.952;2024-01-30T13:16:36;103543.00;;;6.16;50.08
46944;BME280;32678;43.852;25.952;2024-01-30T13:21:33;103548.19;;;6.15;48.95
46944;BME280;32678;43.852;25.952;2024-01-30T13:26:31;103548.41;;;6.22;49.24
46944;BME280;32678;43.852;25.952;2024-01-30T13:31:28;103546.19;;;6.36;48.90
46944;BME280;32678;43.852;25.952;2024-01-30T13:36:25;103538.94;;;6.24;49.00
46944;BME280;32678;43.852;25.952;2024-01-30T13:41:22;103538.00;;;6.22;50.31
46944;BME280;32678;43.852;25.952;2024-01-30T13:46:19;103531.75;;;6.17;50.17
46944;BME280;32678;43.852;25.952;2024-01-30T13:51:16;103519.75;;;6.22;50.79
46944;BME280;32678;43.852;25.952;2024-01-30T13:56:13;103519.22;;;6.34;49.72
46944;BME280;32678;43.852;25.952;2024-01-30T14:01:10;103510.28;;;6.24;49.39
46944;BME280;32678;43.852;25.952;2024-01-30T14:06:07;103508.75;;;6.32;49.19
46944;BME280;32678;43.852;25.952;2024-01-30T14:11:04;103503.84;;;6.43;49.73
46944;BME280;32678;43.852;25.952;2024-01-30T14:16:00;103505.31;;;6.33;50.33
46944;BME280;32678;43.852;25.952;2024-01-30T14:20:59;103513.09;;;6.32;51.19
46944;BME280;32678;43.852;25.952;2024-01-30T14:25:56;103512.44;;;6.40;50.80
46944;BME280;32678;43.852;25.952;2024-01-30T14:30:52;103511.44;;;6.35;50.97
46944;BME280;32678;43.852;25.952;2024-01-30T14:35:49;103514.94;;;6.36;51.65
46944;BME280;32678;43.852;25.952;2024-01-30T14:40:47;103509.72;;;6.36;52.11
46944;BME280;32678;43.852;25.952;2024-01-30T14:45:46;103510.59;;;6.36;52.18
46944;BME280;32678;43.852;25.952;2024-01-30T14:50:45;103514.78;;;6.30;51.92
46944;BME280;32678;43.852;25.952;2024-01-30T14:55:42;103504.31;;;6.28;52.31
46944;BME280;32678;43.852;25.952;2024-01-30T15:00:39;103508.44;;;6.22;52.31
46944;BME280;32678;43.852;25.952;2024-01-30T15:05:36;103513.63;;;6.20;52.25
46944;BME280;32678;43.852;25.952;2024-01-30T15:10:33;103507.53;;;6.20;52.36
46944;BME280;32678;43.852;25.952;2024-01-30T15:15:30;103510.22;;;6.23;53.06
46944;BME280;32678;43.852;25.952;2024-01-30T15:20:27;103511.72;;;6.15;53.86
46944;BME280;32678;43.852;25.952;2024-01-30T15:25:24;103513.34;;;6.11;54.03
46944;BME280;32678;43.852;25.952;2024-01-30T15:30:20;103514.34;;;6.15;54.48
46944;BME280;32678;43.852;25.952;2024-01-30T15:35:17;103517.84;;;6.17;54.72
46944;BME280;32678;43.852;25.952;2024-01-30T15:40:14;103523.88;;;6.14;55.14
46944;BME280;32678;43.852;25.952;2024-01-30T15:45:11;103518.34;;;6.03;55.53
46944;BME280;32678;43.852;25.952;2024-01-30T15:50:08;103536.56;;;6.03;55.45
46944;BME280;32678;43.852;25.952;2024-01-30T15:55:07;103531.56;;;6.11;55.69
46944;BME280;32678;43.852;25.952;2024-01-30T16:00:05;103542.09;;;6.14;56.02
46944;BME280;32678;43.852;25.952;2024-01-30T16:05:07;103531.81;;;6.19;56.25
46944;BME280;32678;43.852;25.952;2024-01-30T16:10:04;103535.38;;;6.22;56.85
46944;BME280;32678;43.852;25.952;2024-01-30T16:15:03;103538.97;;;6.26;56.67
46944;BME280;32678;43.852;25.952;2024-01-30T16:20:00;103533.72;;;6.24;57.02
46944;BME280;32678;43.852;25.952;2024-01-30T16:24:57;103541.72;;;6.30;56.99
46944;BME280;32678;43.852;25.952;2024-01-30T16:29:53;103537.94;;;6.50;56.65
46944;BME280;32678;43.852;25.952;2024-01-30T16:34:50;103542.63;;;6.62;56.26
46944;BME280;32678;43.852;25.952;2024-01-30T16:39:47;103530.94;;;6.48;55.37
46944;BME280;32678;43.852;25.952;2024-01-30T16:44:44;103532.97;;;6.28;55.12
46944;BME280;32678;43.852;25.952;2024-01-30T16:49:40;103526.69;;;6.22;55.57
46944;BME280;32678;43.852;25.952;2024-01-30T16:54:37;103530.19;;;6.22;55.77
46944;BME280;32678;43.852;25.952;2024-01-30T16:59:34;103527.50;;;6.19;55.74
46944;BME280;32678;43.852;25.952;2024-01-30T17:04:31;103533.47;;;6.15;56.29
46944;BME280;32678;43.852;25.952;2024-01-30T17:09:29;103539.19;;;5.50;57.45
46944;BME280;32678;43.852;25.952;2024-01-30T17:14:26;103528.75;;;5.77;57.49
46944;BME280;32678;43.852;25.952;2024-01-30T17:19:25;103536.00;;;5.85;57.28
46944;BME280;32678;43.852;25.952;2024-01-30T17:24:22;103531.63;;;5.57;57.36
46944;BME280;32678;43.852;25.952;2024-01-30T17:29:29;103529.72;;;5.52;57.71
46944;BME280;32678;43.852;25.952;2024-01-30T17:34:26;103532.78;;;5.67;57.90
46944;BME280;32678;43.852;25.952;2024-01-30T17:39:23;103528.81;;;5.24;57.95
46944;BME280;32678;43.852;25.952;2024-01-30T17:44:20;103529.50;;;4.94;59.31
46944;BME280;32678;43.852;25.952;2024-01-30T17:49:17;103524.94;;;4.87;60.34
46944;BME280;32678;43.852;25.952;2024-01-30T17:54:14;103531.56;;;5.02;60.16
46944;BME280;32678;43.852;25.952;2024-01-30T17:59:11;103532.81;;;4.88;60.92
46944;BME280;32678;43.852;25.952;2024-01-30T18:04:07;103522.53;;;4.67;61.62
46944;BME280;32678;43.852;25.952;2024-01-30T18:09:06;103527.50;;;4.61;62.52
46944;BME280;32678;43.852;25.952;2024-01-30T18:14:03;103523.59;;;4.25;64.14
46944;BME280;32678;43.852;25.952;2024-01-30T18:18:59;103511.84;;;4.36;64.30
46944;BME280;32678;43.852;25.952;2024-01-30T18:23:56;103517.53;;;4.26;64.63
46944;BME280;32678;43.852;25.952;2024-01-30T18:28:53;103515.28;;;4.35;64.76
46944;BME280;32678;43.852;25.952;2024-01-30T18:33:52;103505.53;;;4.06;65.94
46944;BME280;32678;43.852;25.952;2024-01-30T18:38:50;103513.38;;;4.29;65.88
46944;BME280;32678;43.852;25.952;2024-01-30T18:43:47;103521.16;;;4.07;66.59
46944;BME280;32678;43.852;25.952;2024-01-30T18:48:43;103522.88;;;3.62;68.18
46944;BME280;32678;43.852;25.952;2024-01-30T18:53:44;103517.59;;;3.18;70.11
46944;BME280;32678;43.852;25.952;2024-01-30T18:58:41;103517.69;;;3.19;69.99
46944;BME280;32678;43.852;25.952;2024-01-30T19:03:37;103520.44;;;3.03;70.12
46944;BME280;32678;43.852;25.952;2024-01-30T19:08:34;103515.75;;;2.94;70.56
46944;BME280;32678;43.852;25.952;2024-01-30T19:13:33;103526.22;;;2.96;70.35
46944;BME280;32678;43.852;25.952;2024-01-30T19:18:29;103515.41;;;3.27;69.14
46944;BME280;32678;43.852;25.952;2024-01-30T19:23:27;103510.22;;;3.06;70.07
46944;BME280;32678;43.852;25.952;2024-01-30T19:28:24;103512.34;;;2.95;70.51
46944;BME280;32678;43.852;25.952;2024-01-30T19:33:21;103510.16;;;3.25;69.98
46944;BME280;32678;43.852;25.952;2024-01-30T19:38:18;103500.75;;;3.07;70.17
46944;BME280;32678;43.852;25.952;2024-01-30T19:43:14;103502.31;;;2.82;70.55
46944;BME280;32678;43.852;25.952;2024-01-30T19:48:11;103496.75;;;2.73;70.04
46944;BME280;32678;43.852;25.952;2024-01-30T19:53:08;103485.00;;;2.81;69.49
46944;BME280;32678;43.852;25.952;2024-01-30T19:58:05;103492.78;;;3.02;68.54
46944;BME280;32678;43.852;25.952;2024-01-30T20:03:01;103490.69;;;3.14;67.77
46944;BME280;32678;43.852;25.952;2024-01-30T20:07:58;103490.47;;;2.89;68.36
46944;BME280;32678;43.852;25.952;2024-01-30T20:12:55;103490.66;;;2.93;67.95
46944;BME280;32678;43.852;25.952;2024-01-30T20:17:52;103483.50;;;3.07;67.43
46944;BME280;32678;43.852;25.952;2024-01-30T20:22:49;103486.56;;;3.19;66.94
46944;BME280;32678;43.852;25.952;2024-01-30T20:27:46;103476.63;;;3.30;66.72
46944;BME280;32678;43.852;25.952;2024-01-30T20:32:43;103473.16;;;3.09;66.71
46944;BME280;32678;43.852;25.952;2024-01-30T20:37:40;103469.75;;;3.10;66.43
46944;BME280;32678;43.852;25.952;2024-01-30T20:42:36;103469.81;;;2.90;66.76
46944;BME280;32678;43.852;25.952;2024-01-30T20:47:33;103467.59;;;2.79;67.03
46944;BME280;32678;43.852;25.952;2024-01-30T20:52:30;103461.84;;;2.65;67.46
46944;BME280;32678;43.852;25.952;2024-01-30T20:57:27;103461.66;;;2.41;68.13
46944;BME280;32678;43.852;25.952;2024-01-30T21:02:23;103460.22;;;2.67;67.45
46944;BME280;32678;43.852;25.952;2024-01-30T21:07:20;103457.94;;;2.75;67.65
46944;BME280;32678;43.852;25.952;2024-01-30T21:12:20;103459.25;;;2.86;67.11
46944;BME280;32678;43.852;25.952;2024-01-30T21:17:17;103459.19;;;2.84;67.11
46944;BME280;32678;43.852;25.952;2024-01-30T21:22:13;103454.47;;;2.95;66.97
46944;BME280;32678;43.852;25.952;2024-01-30T21:27:10;103452.50;;;2.89;67.43
46944;BME280;32678;43.852;25.952;2024-01-30T21:32:07;103459.19;;;2.84;67.85
46944;BME280;32678;43.852;25.952;2024-01-30T21:37:04;103443.84;;;2.89;67.94
46944;BME280;32678;43.852;25.952;2024-01-30T21:42:00;103443.66;;;2.84;68.12
46944;BME280;32678;43.852;25.952;2024-01-30T21:46:58;103443.59;;;2.83;68.19
46944;BME280;32678;43.852;25.952;2024-01-30T21:51:55;103441.06;;;2.84;68.47
46944;BME280;32678;43.852;25.952;2024-01-30T21:56:52;103437.34;;;2.78;68.60
46944;BME280;32678;43.852;25.952;2024-01-30T22:01:48;103433.16;;;2.60;69.28
46944;BME280;32678;43.852;25.952;2024-01-30T22:06:45;103436.31;;;2.53;70.41
46944;BME280;32678;43.852;25.952;2024-01-30T22:11:42;103420.81;;;2.55;70.12
46944;BME280;32678;43.852;25.952;2024-01-30T22:16:39;103422.41;;;2.51;70.22
46944;BME280;32678;43.852;25.952;2024-01-30T22:21:36;103410.22;;;2.09;71.67
46944;BME280;32678;43.852;25.952;2024-01-30T22:26:37;103406.25;;;1.98;72.69
46944;BME280;32678;43.852;25.952;2024-01-30T22:31:35;103404.16;;;1.89;71.66
46944;BME280;32678;43.852;25.952;2024-01-30T22:36:31;103413.25;;;1.81;70.52
46944;BME280;32678;43.852;25.952;2024-01-30T22:41:28;103408.94;;;1.99;68.33
46944;BME280;32678;43.852;25.952;2024-01-30T22:46:25;103413.59;;;2.08;68.26
46944;BME280;32678;43.852;25.952;2024-01-30T22:51:22;103401.50;;;1.88;67.00
46944;BME280;32678;43.852;25.952;2024-01-30T22:56:21;103393.81;;;1.89;66.40
46944;BME280;32678;43.852;25.952;2024-01-30T23:01:18;103397.41;;;2.12;64.58
46944;BME280;32678;43.852;25.952;2024-01-30T23:06:14;103392.44;;;1.78;65.87
46944;BME280;32678;43.852;25.952;2024-01-30T23:11:12;103392.72;;;1.84;64.81
46944;BME280;32678;43.852;25.952;2024-01-30T23:16:08;103366.56;;;1.97;64.06
46944;BME280;32678;43.852;25.952;2024-01-30T23:21:05;103392.00;;;2.27;63.04
46944;BME280;32678;43.852;25.952;2024-01-30T23:26:02;103389.91;;;2.18;62.78
46944;BME280;32678;43.852;25.952;2024-01-30T23:31:00;103381.16;;;1.95;63.25
46944;BME280;32678;43.852;25.952;2024-01-30T23:35:57;103380.59;;;1.64;64.32
46944;BME280;32678;43.852;25.952;2024-01-30T23:40:54;103378.00;;;1.83;63.86
46944;BME280;32678;43.852;25.952;2024-01-30T23:45:51;103382.56;;;1.89;63.49
46944;BME280;32678;43.852;25.952;2024-01-30T23:50:49;103378.53;;;1.57;64.41
46944;BME280;32678;43.852;25.952;2024-01-30T23:55:47;103375.41;;;1.83;63.59
